ROMMA est une association bénévole à but non lucratif. Votre soutien est indispensable : ADHERER à ROMMA ou FAIRE un DON

Crest - (26, Drôme)

Vallée de la Drôme (315 m)   Longitude: 5°2' E   Latitude: 44°44' N Station partenaire n°62
 

Détail journalier du     <<     >>

Température Precipitation Humidité Pression Vent Dir Rafale Dir. rafale Ensol.
Heure (°C) (mm) (%) (hPa) (km/h) (km/h) (min)
01:00 18.4055101912NE27NNO0
02:00 17.9053101914NE31ENE0
03:00 17.3056101815N32NNO0
04:00 16.8058101815N34N0
05:00 16.3060101815N35N0
06:00 15.7063101815N35NE0
07:00 15.6066101814SSO37SSO0
08:00 15.7066101813SSO32ENE33
09:00 16.0065101917NE34NE7
10:00 16.9060101818NE35NE52
11:00 17.9056101820SSO37SSO58
12:00 18.6057101822SSO44N60
13:00 18.8051101818NE37NNE11
14:00 20.1047101818NE42NE5
15:00 21.1042101720NE40NE56
16:00 22.1039101620NE44NE55
17:00 22.1038101621NE47NE56
18:00 21.2040101621NE45SSO56
19:00 20.9039101619NE40NNE58
20:00 19.9042101717NE39NE12
21:00 18.7045101712NE31SSO0
22:00 17.9047101812NE29E0
23:00 17.8047101816NE32NE0
minuit 17.2049101811NE29NE0

Graphique du 13-08-2019

 

Serveur OMMA